Time;durP1;ratioP1;P1;durP2;ratioP2;P2;SDS_P1;SDS_P2;PMS_P1;PMS_P2;Temp;Humidity;BMP_temperature;BMP_pressure;BME280_temperature;BME280_humidity;BME280_pressure;Samples;Min_cycle;Max_cycle;Signal;HPM_P1;HPM_P2
2023/07/20 00:02:24;;;;;;;3.40;2.10;;;20.80;99.90;;;;;;5054563;28;20029;-58
2023/07/20 00:04:49;;;;;;;3.65;1.60;;;20.70;99.90;;;;;;5054984;28;20029;-58
2023/07/20 00:07:15;;;;;;;2.70;1.55;;;20.50;99.90;;;;;;5054495;28;20064;-59
2023/07/20 00:09:40;;;;;;;2.67;1.63;;;20.70;99.90;;;;;;5054321;28;20025;-58
2023/07/20 00:12:07;;;;;;;3.65;1.85;;;20.60;99.90;;;;;;5054012;28;20067;-58
2023/07/20 00:14:32;;;;;;;2.92;1.88;;;20.50;99.90;;;;;;5054476;28;20545;-58
2023/07/20 00:16:58;;;;;;;3.55;1.80;;;20.30;99.90;;;;;;5054538;28;20108;-59
2023/07/20 00:19:28;;;;;;;4.72;1.95;;;20.20;99.90;;;;;;5054470;28;20020;-59
2023/07/20 00:21:54;;;;;;;2.97;2.00;;;20.00;99.90;;;;;;5054643;28;20132;-59
2023/07/20 00:24:20;;;;;;;2.83;1.95;;;19.90;99.90;;;;;;5054567;28;20076;-58
2023/07/20 00:26:46;;;;;;;4.75;2.17;;;19.80;99.90;;;;;;5053933;28;20521;-58
2023/07/20 00:29:12;;;;;;;3.08;1.98;;;19.80;99.90;;;;;;5054543;28;20057;-59
2023/07/20 00:31:38;;;;;;;2.17;1.90;;;19.70;99.90;;;;;;5054100;28;20056;-58
2023/07/20 00:34:04;;;;;;;3.45;1.75;;;19.60;99.90;;;;;;5054337;28;20036;-58
2023/07/20 00:36:30;;;;;;;2.08;1.77;;;19.60;99.90;;;;;;5054255;28;20112;-58
2023/07/20 00:38:56;;;;;;;4.65;2.00;;;19.60;99.90;;;;;;5054124;28;20104;-58
2023/07/20 00:41:22;;;;;;;2.70;2.10;;;19.60;99.90;;;;;;5053919;28;20055;-58
2023/07/20 00:43:47;;;;;;;3.40;2.00;;;19.50;99.90;;;;;;5054118;28;20048;-58
2023/07/20 00:46:14;;;;;;;3.72;2.38;;;19.50;99.90;;;;;;5053952;28;20039;-58
2023/07/20 00:48:41;;;;;;;2.97;2.17;;;19.40;99.90;;;;;;5053924;28;20063;-58
2023/07/20 00:51:07;;;;;;;3.03;1.92;;;19.40;99.90;;;;;;5054361;28;20483;-58
2023/07/20 00:53:33;;;;;;;2.55;1.90;;;19.40;99.90;;;;;;5053830;28;20104;-57
2023/07/20 00:55:58;;;;;;;2.67;1.90;;;19.40;99.90;;;;;;5053616;28;20520;-58
2023/07/20 00:58:24;;;;;;;5.57;2.10;;;19.70;99.90;;;;;;5053877;28;20437;-58
2023/07/20 01:00:51;;;;;;;3.30;2.03;;;20.00;99.90;;;;;;5053743;28;20021;-59
2023/07/20 01:03:17;;;;;;;3.92;2.40;;;20.00;99.90;;;;;;5053894;28;20048;-58
2023/07/20 01:06:15;;;;;;;3.25;1.90;;;20.00;99.90;;;;;;5053876;28;20033;-58
2023/07/20 01:09:07;;;;;;;2.78;2.05;;;20.10;99.90;;;;;;5011016;28;20046;-58
2023/07/20 01:12:02;;;;;;;3.35;2.25;;;20.10;99.90;;;;;;5009621;28;20034;-58
2023/07/20 01:14:27;;;;;;;3.40;2.40;;;20.10;99.90;;;;;;5011617;28;20142;-58
2023/07/20 01:16:53;;;;;;;2.95;2.17;;;20.00;99.90;;;;;;5011537;28;20029;-58
2023/07/20 01:19:19;;;;;;;4.35;2.25;;;20.00;99.90;;;;;;5011250;28;20486;-58
2023/07/20 01:22:02;;;;;;;3.80;2.00;;;20.00;99.90;;;;;;5011375;28;20084;-58
2023/07/20 01:25:08;;;;;;;3.00;2.00;;;20.10;99.90;;;;;;5011317;28;20057;-59
2023/07/20 01:27:40;;;;;;;3.17;2.20;;;20.00;99.90;;;;;;4952737;29;20779;-58
2023/07/20 01:30:24;;;;;;;4.68;2.30;;;19.90;99.90;;;;;;4952991;29;20528;-58
2023/07/20 01:32:55;;;;;;;2.65;1.98;;;19.80;99.90;;;;;;4952778;28;20132;-58
2023/07/20 01:35:26;;;;;;;2.50;2.00;;;19.90;99.90;;;;;;4953025;29;20106;-58
2023/07/20 01:37:53;;;;;;;4.32;2.10;;;19.70;99.90;;;;;;4952204;29;20130;-59
2023/07/20 01:40:22;;;;;;;4.03;2.20;;;19.50;99.90;;;;;;4952675;29;20106;-58
2023/07/20 01:42:48;;;;;;;4.53;2.50;;;19.30;99.90;;;;;;4952463;29;20042;-59
2023/07/20 01:45:13;;;;;;;4.15;2.35;;;19.10;99.90;;;;;;4969882;28;20579;-58
2023/07/20 01:47:39;;;;;;;3.10;2.38;;;18.90;99.90;;;;;;4972142;28;20031;-59
2023/07/20 01:50:06;;;;;;;3.70;2.38;;;18.90;99.90;;;;;;4972114;28;20078;-58
2023/07/20 01:52:32;;;;;;;2.42;2.22;;;18.80;99.90;;;;;;4955411;28;20169;-58
2023/07/20 01:54:57;;;;;;;3.60;2.63;;;18.80;99.90;;;;;;4971913;28;20630;-59
2023/07/20 01:57:23;;;;;;;2.90;2.25;;;18.70;99.90;;;;;;4971650;28;20050;-59
2023/07/20 01:59:49;;;;;;;5.05;2.70;;;18.70;99.90;;;;;;4971577;28;20027;-58
2023/07/20 02:02:14;;;;;;;3.53;2.90;;;18.60;99.90;;;;;;4978979;28;20089;-58
2023/07/20 02:04:40;;;;;;;4.05;2.47;;;18.60;99.90;;;;;;5032585;28;20029;-59
2023/07/20 02:07:06;;;;;;;3.33;2.75;;;18.60;99.90;;;;;;5032352;28;20083;-58
2023/07/20 02:09:31;;;;;;;4.43;2.63;;;18.50;99.90;;;;;;5032407;28;20075;-58
2023/07/20 02:11:57;;;;;;;4.18;2.50;;;18.40;99.90;;;;;;5033055;28;20043;-59
2023/07/20 02:14:23;;;;;;;4.88;3.10;;;18.40;99.90;;;;;;5031183;28;20021;-59
2023/07/20 02:16:53;;;;;;;5.47;2.67;;;18.30;99.90;;;;;;5032455;28;20025;-58
2023/07/20 02:19:20;;;;;;;3.25;2.80;;;18.40;99.90;;;;;;5047470;28;20036;-58
2023/07/20 02:21:46;;;;;;;3.80;2.78;;;18.60;99.90;;;;;;5051943;28;20037;-58
2023/07/20 02:24:13;;;;;;;4.25;2.80;;;18.70;99.90;;;;;;5052202;28;20056;-59
2023/07/20 02:26:38;;;;;;;4.07;2.70;;;18.70;99.90;;;;;;5051959;28;20439;-58
2023/07/20 02:29:08;;;;;;;6.55;2.80;;;18.80;99.90;;;;;;5052537;28;20025;-58
2023/07/20 02:31:33;;;;;;;3.28;2.65;;;18.80;99.90;;;;;;5051878;28;20525;-58
2023/07/20 02:33:59;;;;;;;4.00;2.53;;;18.90;99.90;;;;;;5051889;28;20021;-58
2023/07/20 02:36:25;;;;;;;4.07;2.95;;;18.90;99.90;;;;;;5051595;28;20032;-58
2023/07/20 02:38:50;;;;;;;4.15;2.67;;;18.90;99.90;;;;;;5051816;28;20032;-58
2023/07/20 02:41:16;;;;;;;4.45;2.70;;;18.90;99.90;;;;;;5052122;28;20078;-58
2023/07/20 02:43:42;;;;;;;3.55;2.60;;;18.90;99.90;;;;;;5051684;28;20090;-58
2023/07/20 02:46:07;;;;;;;5.15;2.92;;;18.80;99.90;;;;;;5051796;28;20055;-58
2023/07/20 02:48:33;;;;;;;4.75;3.00;;;19.00;99.90;;;;;;5051831;28;20497;-58
2023/07/20 02:50:59;;;;;;;6.85;2.95;;;18.90;99.90;;;;;;5051695;28;20387;-58
2023/07/20 02:53:24;;;;;;;5.55;2.90;;;18.90;99.90;;;;;;5051531;28;20478;-58
2023/07/20 02:55:50;;;;;;;3.40;2.50;;;18.90;99.90;;;;;;5051888;28;20036;-59
2023/07/20 02:58:16;;;;;;;4.47;2.50;;;18.80;99.90;;;;;;5051836;28;20103;-58
2023/07/20 03:00:43;;;;;;;4.35;2.72;;;18.60;99.90;;;;;;5050179;28;20021;-58
2023/07/20 03:03:09;;;;;;;5.97;3.13;;;18.40;99.90;;;;;;5051588;28;20043;-58
2023/07/20 03:05:37;;;;;;;4.50;2.55;;;18.40;99.90;;;;;;5051117;28;20029;-58
2023/07/20 03:08:06;;;;;;;4.63;3.00;;;18.40;99.90;;;;;;5046987;28;20073;-58
2023/07/20 03:10:32;;;;;;;3.95;2.70;;;18.40;99.90;;;;;;5031639;28;20104;-59
2023/07/20 03:12:58;;;;;;;7.28;3.13;;;18.30;99.90;;;;;;5031572;28;20029;-58
2023/07/20 03:15:23;;;;;;;5.80;3.03;;;18.30;99.90;;;;;;5031381;28;20032;-58
2023/07/20 03:17:49;;;;;;;5.47;3.08;;;18.30;99.90;;;;;;5034525;28;20024;-58
2023/07/20 03:20:15;;;;;;;6.38;3.17;;;18.20;99.90;;;;;;5050596;28;20107;-58
2023/07/20 03:22:41;;;;;;;5.03;2.90;;;18.20;99.90;;;;;;5051512;28;20025;-58
2023/07/20 03:25:07;;;;;;;6.10;3.10;;;18.20;99.90;;;;;;5051072;28;20095;-59
2023/07/20 03:27:33;;;;;;;5.40;3.25;;;18.20;99.90;;;;;;5051076;28;20036;-59
2023/07/20 03:29:59;;;;;;;5.80;3.03;;;18.10;99.90;;;;;;5051048;28;20100;-58
2023/07/20 03:32:24;;;;;;;5.18;2.97;;;18.10;99.90;;;;;;5050389;28;20037;-58
2023/07/20 03:34:50;;;;;;;6.07;3.08;;;18.10;99.90;;;;;;5051083;28;20025;-58
2023/07/20 03:37:16;;;;;;;4.30;3.08;;;18.10;99.90;;;;;;5051100;28;20075;-59
2023/07/20 03:39:42;;;;;;;7.32;3.00;;;18.10;99.90;;;;;;5050932;28;20100;-59
2023/07/20 03:42:07;;;;;;;6.25;3.03;;;18.10;99.90;;;;;;5051193;28;20490;-58
2023/07/20 03:44:33;;;;;;;5.95;3.20;;;18.20;99.90;;;;;;5051200;28;20028;-58
2023/07/20 03:46:59;;;;;;;5.93;3.20;;;18.30;99.90;;;;;;5050756;28;20110;-58
2023/07/20 03:49:24;;;;;;;6.45;3.08;;;18.40;99.90;;;;;;5050761;28;20048;-59
2023/07/20 03:51:50;;;;;;;4.93;3.17;;;18.40;99.90;;;;;;5051115;28;20025;-58
2023/07/20 03:54:16;;;;;;;5.28;2.80;;;18.50;99.90;;;;;;5051149;28;20025;-58
2023/07/20 03:56:41;;;;;;;5.70;3.00;;;18.50;99.90;;;;;;5051070;28;20025;-58
2023/07/20 03:59:07;;;;;;;7.57;3.10;;;18.50;99.90;;;;;;5051048;28;20482;-58
2023/07/20 04:01:36;;;;;;;6.72;2.80;;;18.40;99.90;;;;;;5050911;28;20061;-59
2023/07/20 04:04:06;;;;;;;6.10;2.65;;;18.50;99.90;;;;;;5050435;28;20028;-58
2023/07/20 04:06:31;;;;;;;5.72;2.90;;;18.50;99.90;;;;;;5050881;28;20041;-58
2023/07/20 04:08:57;;;;;;;5.25;2.90;;;18.30;99.90;;;;;;5050194;28;20479;-58
2023/07/20 04:11:23;;;;;;;5.65;3.20;;;18.40;99.90;;;;;;5030975;28;20076;-58
2023/07/20 04:13:48;;;;;;;4.32;2.70;;;18.40;99.90;;;;;;5030736;28;20032;-58
2023/07/20 04:16:14;;;;;;;7.82;3.10;;;18.30;99.90;;;;;;5030775;28;20032;-58
2023/07/20 04:18:39;;;;;;;5.25;3.05;;;18.20;99.90;;;;;;5040021;28;20425;-58
2023/07/20 04:21:09;;;;;;;4.68;2.75;;;18.00;99.90;;;;;;5050864;28;20100;-58
2023/07/20 04:23:35;;;;;;;5.22;2.80;;;17.90;99.90;;;;;;5050761;28;20124;-58
2023/07/20 04:26:01;;;;;;;5.60;3.05;;;17.80;99.90;;;;;;5050385;28;20033;-58
2023/07/20 04:28:27;;;;;;;4.18;2.90;;;17.70;99.90;;;;;;5050653;28;20285;-58
2023/07/20 04:30:53;;;;;;;3.83;3.00;;;17.60;99.90;;;;;;5050541;28;20379;-58
2023/07/20 04:33:19;;;;;;;3.72;2.60;;;17.50;99.90;;;;;;5050071;28;20115;-59
2023/07/20 04:35:53;;;;;;;5.47;3.00;;;17.50;99.90;;;;;;5050777;28;20096;-58
2023/07/20 04:38:20;;;;;;;5.30;3.28;;;17.50;99.90;;;;;;5050393;28;20395;-58
2023/07/20 04:40:47;;;;;;;5.68;3.35;;;17.40;99.90;;;;;;5050304;28;20025;-59
2023/07/20 04:43:16;;;;;;;5.82;3.28;;;17.40;99.90;;;;;;5050541;28;20033;-58
2023/07/20 04:45:42;;;;;;;8.77;3.20;;;17.40;99.90;;;;;;5052991;28;20207;-58
2023/07/20 04:48:16;;;;;;;5.68;3.15;;;17.30;99.90;;;;;;5054003;28;20112;-58
2023/07/20 04:50:42;;;;;;;;;;;17.30;99.90;;;;;;5054646;28;20095;-58
2023/07/20 04:53:10;;;;;;;3.65;2.75;;;17.20;99.90;;;;;;5054023;28;20459;-59
2023/07/20 04:55:36;;;;;;;5.88;3.00;;;17.30;99.90;;;;;;5053864;28;20029;-59
2023/07/20 04:58:03;;;;;;;6.22;3.10;;;17.30;99.90;;;;;;5053915;28;20029;-59
2023/07/20 05:00:37;;;;;;;5.65;2.92;;;17.30;99.90;;;;;;5052991;28;20017;-58
2023/07/20 05:03:05;;;;;;;6.18;3.05;;;17.40;99.90;;;;;;5053461;28;20498;-59
2023/07/20 05:05:31;;;;;;;5.70;3.08;;;17.60;99.90;;;;;;5053577;28;20037;-58
2023/07/20 05:07:57;;;;;;;6.05;2.92;;;17.70;99.90;;;;;;5053557;28;20056;-59
2023/07/20 05:10:23;;;;;;;5.60;2.70;;;17.90;99.90;;;;;;5047547;28;20071;-58
2023/07/20 05:12:49;;;;;;;7.55;2.90;;;17.90;99.90;;;;;;5033488;28;20029;-58
2023/07/20 05:15:15;;;;;;;4.45;2.85;;;17.90;99.90;;;;;;5033807;28;20398;-58
2023/07/20 05:17:41;;;;;;;5.13;2.88;;;18.00;99.90;;;;;;5035283;28;20029;-58
2023/07/20 05:20:09;;;;;;;5.47;3.00;;;18.00;99.90;;;;;;5053449;28;20561;-58
2023/07/20 05:22:35;;;;;;;6.53;2.90;;;18.00;99.90;;;;;;5053821;28;20028;-58
2023/07/20 05:25:01;;;;;;;5.90;2.72;;;18.00;99.90;;;;;;5051989;28;20670;-58
2023/07/20 05:27:27;;;;;;;5.55;2.78;;;18.00;99.90;;;;;;5053265;28;20025;-59
2023/07/20 05:29:52;;;;;;;4.90;2.90;;;18.00;99.90;;;;;;5053087;28;20041;-58
2023/07/20 05:32:18;;;;;;;6.75;3.53;;;18.10;99.90;;;;;;5053525;28;20036;-59
2023/07/20 05:34:44;;;;;;;6.32;2.88;;;18.10;99.90;;;;;;5053023;28;20029;-59
2023/07/20 05:37:09;;;;;;;6.50;3.03;;;17.90;99.90;;;;;;5053172;28;20086;-58
2023/07/20 05:39:35;;;;;;;5.53;2.78;;;17.80;99.90;;;;;;5053385;28;20021;-58
2023/07/20 05:42:00;;;;;;;4.53;2.67;;;17.70;99.90;;;;;;5052937;28;20021;-59
2023/07/20 05:44:26;;;;;;;5.78;3.13;;;17.60;99.90;;;;;;5052728;28;20047;-59
2023/07/20 05:46:52;;;;;;;6.50;2.83;;;17.60;99.90;;;;;;5052813;28;20039;-58
2023/07/20 05:49:17;;;;;;;6.15;3.00;;;17.60;99.90;;;;;;5053372;28;20478;-59
2023/07/20 05:51:43;;;;;;;4.72;2.70;;;17.60;99.90;;;;;;5052614;28;20017;-59
2023/07/20 05:54:09;;;;;;;4.68;3.35;;;17.60;99.90;;;;;;5053068;28;20025;-58
2023/07/20 05:56:34;;;;;;;7.05;3.38;;;17.60;99.90;;;;;;5052283;28;20028;-58
2023/07/20 05:59:00;;;;;;;6.18;3.08;;;17.60;99.90;;;;;;5052313;28;20029;-58
2023/07/20 06:01:27;;;;;;;6.15;3.10;;;17.60;99.90;;;;;;5052897;28;20021;-58
2023/07/20 06:03:53;;;;;;;5.45;3.00;;;17.60;99.90;;;;;;5053147;28;20040;-57
2023/07/20 06:06:19;;;;;;;7.13;3.03;;;17.60;99.90;;;;;;5052568;28;20562;-58
2023/07/20 06:08:45;;;;;;;5.60;2.88;;;17.70;99.90;;;;;;5052567;28;20035;-58
2023/07/20 06:11:11;;;;;;;4.45;2.60;;;17.70;99.90;;;;;;5045635;28;20021;-58
2023/07/20 06:13:37;;;;;;;4.82;2.92;;;17.80;99.90;;;;;;5032474;28;20818;-58
2023/07/20 06:16:03;;;;;;;5.30;2.80;;;17.80;99.90;;;;;;5031193;28;20121;-58
2023/07/20 06:18:30;;;;;;;5.85;3.20;;;17.90;99.90;;;;;;5040611;28;20028;-58
2023/07/20 06:20:56;;;;;;;5.82;2.85;;;17.90;99.90;;;;;;5052247;28;20619;-58
2023/07/20 06:23:22;;;;;;;5.68;2.90;;;18.20;99.90;;;;;;5052302;28;20506;-58
2023/07/20 06:25:47;;;;;;;5.45;3.10;;;18.30;99.90;;;;;;5051936;28;20033;-58
2023/07/20 06:28:13;;;;;;;5.13;2.72;;;18.60;99.90;;;;;;5051914;28;20025;-58
2023/07/20 06:30:39;;;;;;;4.85;2.60;;;18.70;99.90;;;;;;5052176;28;20048;-58
2023/07/20 06:33:06;;;;;;;4.68;2.45;;;18.90;99.90;;;;;;5052187;28;20106;-58
2023/07/20 06:35:32;;;;;;;4.43;2.45;;;18.90;99.90;;;;;;5052047;28;20375;-58
2023/07/20 06:37:59;;;;;;;6.22;2.92;;;19.00;99.90;;;;;;5051830;28;20124;-59
2023/07/20 06:40:24;;;;;;;3.88;2.25;;;19.10;99.90;;;;;;5052214;28;20100;-59
2023/07/20 06:42:50;;;;;;;6.25;2.60;;;19.10;99.90;;;;;;5051382;28;20103;-58
2023/07/20 06:45:16;;;;;;;7.40;2.72;;;19.10;99.90;;;;;;5051987;28;20471;-58
2023/07/20 06:47:42;;;;;;;3.63;2.45;;;19.20;99.90;;;;;;5051917;28;20025;-58
2023/07/20 06:50:09;;;;;;;6.95;2.45;;;19.30;99.90;;;;;;5051755;28;20072;-58
2023/07/20 06:52:34;;;;;;;3.25;2.40;;;19.30;99.90;;;;;;5052014;28;20113;-58
2023/07/20 06:55:00;;;;;;;3.90;2.40;;;19.30;99.90;;;;;;5051612;28;20537;-58
2023/07/20 06:57:26;;;;;;;6.40;2.53;;;19.30;99.90;;;;;;5051376;28;20021;-58
2023/07/20 06:59:51;;;;;;;5.65;2.70;;;19.20;99.90;;;;;;5051522;28;20024;-58
2023/07/20 07:02:17;;;;;;;3.03;2.13;;;19.10;99.90;;;;;;5051970;28;20570;-58
2023/07/20 07:04:43;;;;;;;7.20;2.83;;;19.20;99.90;;;;;;5051569;28;20029;-58
2023/07/20 07:07:09;;;;;;;4.78;2.42;;;19.20;99.90;;;;;;5050885;28;20509;-59
2023/07/20 07:09:35;;;;;;;4.18;2.38;;;19.20;99.90;;;;;;5051383;28;20025;-59
2023/07/20 07:12:01;;;;;;;4.35;2.40;;;19.20;99.90;;;;;;5047081;28;20500;-58
2023/07/20 07:14:27;;;;;;;2.97;2.20;;;19.30;99.90;;;;;;5031693;28;20017;-59
2023/07/20 07:16:52;;;;;;;7.13;2.70;;;19.30;99.90;;;;;;5031138;28;20053;-59
2023/07/20 07:19:19;;;;;;;6.30;2.20;;;19.30;99.90;;;;;;5046504;28;20130;-58
2023/07/20 07:21:44;;;;;;;4.00;2.10;;;19.40;99.90;;;;;;5051106;28;20028;-58
2023/07/20 07:24:10;;;;;;;4.72;2.42;;;19.40;99.90;;;;;;5050801;28;20053;-58
2023/07/20 07:26:38;;;;;;;4.55;2.55;;;19.30;99.90;;;;;;5050929;28;20061;-58
2023/07/20 07:29:04;;;;;;;3.63;2.10;;;19.30;99.90;;;;;;5051194;28;20723;-59
2023/07/20 07:31:30;;;;;;;3.20;2.10;;;19.40;99.90;;;;;;5051186;28;20025;-59
2023/07/20 07:33:56;;;;;;;5.25;2.22;;;19.40;99.90;;;;;;5051357;28;20025;-59
2023/07/20 07:36:24;;;;;;;4.13;1.90;;;19.40;99.90;;;;;;5051034;28;20056;-59
2023/07/20 07:38:50;;;;;;;4.38;2.30;;;19.70;99.90;;;;;;5050915;28;20029;-58
2023/07/20 07:41:16;;;;;;;3.28;2.00;;;19.90;99.90;;;;;;5030736;28;20398;-58
2023/07/20 07:43:42;;;;;;;3.90;2.15;;;20.10;99.90;;;;;;5031002;28;20460;-58
2023/07/20 07:46:07;;;;;;;6.10;2.20;;;20.10;99.90;;;;;;5044841;28;20131;-58
2023/07/20 07:48:33;;;;;;;6.43;2.38;;;20.40;99.90;;;;;;5050837;28;20074;-58
2023/07/20 07:50:59;;;;;;;4.13;2.13;;;20.60;99.90;;;;;;5050794;28;20099;-58
2023/07/20 07:53:25;;;;;;;5.00;2.38;;;20.70;99.90;;;;;;5050711;28;20486;-58
2023/07/20 07:55:52;;;;;;;6.80;2.08;;;;;;;;;;5050625;28;20033;-56
2023/07/20 07:58:17;;;;;;;5.22;1.92;;;20.80;99.90;;;;;;5051193;28;20060;-57
2023/07/20 08:00:44;;;;;;;4.78;2.05;;;21.00;99.90;;;;;;5050658;28;20057;-58
2023/07/20 08:03:10;;;;;;;3.67;2.10;;;20.90;99.90;;;;;;5050682;28;20025;-57
2023/07/20 08:05:35;;;;;;;3.97;2.25;;;20.90;99.90;;;;;;5050620;28;20040;-57
2023/07/20 08:08:03;;;;;;;4.75;2.45;;;21.00;99.90;;;;;;5050877;28;20406;-57
2023/07/20 08:10:29;;;;;;;4.68;2.15;;;20.80;99.90;;;;;;5050384;28;20524;-57
2023/07/20 08:12:55;;;;;;;5.43;2.20;;;20.70;99.90;;;;;;5050578;28;20051;-57
2023/07/20 08:15:21;;;;;;;6.03;2.25;;;20.70;99.90;;;;;;5050681;28;20036;-57
2023/07/20 08:17:48;;;;;;;4.05;2.40;;;20.50;99.90;;;;;;5050427;28;20025;-57
2023/07/20 08:20:16;;;;;;;4.63;2.28;;;20.50;99.90;;;;;;5054340;28;20155;-58
2023/07/20 08:22:41;;;;;;;5.22;2.28;;;20.50;99.90;;;;;;5054537;28;20438;-58
2023/07/20 08:25:08;;;;;;;4.38;2.20;;;20.60;99.90;;;;;;5053844;28;20059;-57
2023/07/20 08:27:34;;;;;;;4.72;2.17;;;20.50;99.90;;;;;;5054456;28;20033;-58
2023/07/20 08:30:00;;;;;;;6.35;2.22;;;20.50;99.90;;;;;;5054635;28;20023;-57
2023/07/20 08:32:26;;;;;;;3.08;2.35;;;20.40;99.90;;;;;;5054419;28;20029;-57
2023/07/20 08:34:52;;;;;;;4.45;2.28;;;20.40;99.90;;;;;;5054282;28;20553;-55
2023/07/20 08:37:18;;;;;;;3.92;2.08;;;20.40;99.90;;;;;;5053945;28;20218;-57
2023/07/20 08:39:43;;;;;;;4.85;2.42;;;20.50;99.90;;;;;;5053844;28;20032;-57
2023/07/20 08:42:10;;;;;;;4.78;2.20;;;20.50;99.90;;;;;;5054154;28;20025;-58
2023/07/20 08:44:38;;;;;;;4.22;2.40;;;20.50;99.90;;;;;;5054251;28;20028;-58
2023/07/20 08:47:05;;;;;;;3.53;2.00;;;20.50;99.90;;;;;;5054152;28;20033;-57
2023/07/20 08:49:32;;;;;;;4.90;2.08;;;20.60;99.90;;;;;;5054046;28;20437;-58
2023/07/20 08:51:59;;;;;;;6.32;2.40;;;20.60;99.90;;;;;;5054250;28;20052;-56
2023/07/20 08:54:29;;;;;;;3.92;2.05;;;20.90;99.90;;;;;;5053943;28;20536;-58
2023/07/20 08:56:57;;;;;;;5.55;2.30;;;21.10;99.90;;;;;;5053937;28;20029;-57
2023/07/20 08:59:24;;;;;;;4.82;2.00;;;21.30;99.90;;;;;;5053639;28;20090;-57
2023/07/20 09:01:52;;;;;;;3.85;2.10;;;21.40;99.90;;;;;;5053697;28;20486;-57
2023/07/20 09:04:18;;;;;;;4.10;1.88;;;21.50;99.90;;;;;;5053864;28;20033;-58
2023/07/20 09:06:44;;;;;;;3.45;1.95;;;21.60;99.90;;;;;;5053653;28;20044;-56
2023/07/20 09:09:11;;;;;;;5.15;2.70;;;21.70;99.90;;;;;;5053351;28;20538;-57
2023/07/20 09:11:36;;;;;;;11.45;3.15;;;21.70;99.90;;;;;;5053626;28;20029;-58
2023/07/20 09:14:09;;;;;;;11.90;4.13;;;21.90;99.90;;;;;;5053790;28;20433;-57
2023/07/20 09:16:54;;;;;;;7.20;3.10;;;22.00;99.90;;;;;;5053491;28;20032;-57
2023/07/20 09:19:21;;;;;;;5.32;2.55;;;22.10;99.90;;;;;;5053328;28;20074;-57
2023/07/20 09:21:51;;;;;;;6.45;2.35;;;22.00;99.90;;;;;;5052975;28;20096;-56
2023/07/20 09:24:19;;;;;;;3.20;2.40;;;22.00;99.90;;;;;;5053173;28;20552;-57
2023/07/20 09:26:48;;;;;;;3.63;2.13;;;22.10;99.90;;;;;;5053387;28;20048;-57
2023/07/20 09:29:14;;;;;;;4.47;2.42;;;22.00;99.90;;;;;;5053690;28;20025;-57
2023/07/20 09:31:41;;;;;;;4.47;2.10;;;21.90;99.90;;;;;;5052407;28;20029;-56
2023/07/20 09:34:07;;;;;;;17.63;2.95;;;21.60;99.90;;;;;;5053035;28;20025;-57
2023/07/20 09:36:35;;;;;;;9.20;2.63;;;21.60;99.90;;;;;;5053258;28;20060;-57
2023/07/20 09:39:00;;;;;;;4.30;2.38;;;21.60;99.90;;;;;;5053056;28;20497;-57
2023/07/20 09:41:26;;;;;;;6.05;2.50;;;21.70;99.90;;;;;;5053209;28;20083;-57
2023/07/20 09:43:53;;;;;;;2.78;2.15;;;21.70;99.90;;;;;;5053498;28;20450;-56
2023/07/20 09:46:20;;;;;;;2.63;2.08;;;21.60;99.90;;;;;;5053114;28;20033;-55
2023/07/20 09:48:55;;;;;;;3.20;2.33;;;21.70;99.90;;;;;;5052922;28;20171;-57
2023/07/20 09:51:24;;;;;;;4.60;2.28;;;21.60;99.90;;;;;;5052555;28;20031;-56
2023/07/20 09:53:54;;;;;;;4.43;2.30;;;21.70;99.90;;;;;;5052965;28;20044;-56
2023/07/20 09:56:21;;;;;;;5.20;3.00;;;21.60;99.90;;;;;;5053080;28;20032;-56
2023/07/20 09:58:47;;;;;;;5.68;4.40;;;21.80;99.90;;;;;;5052663;28;20443;-57
2023/07/20 10:01:16;;;;;;;4.10;2.33;;;21.90;99.90;;;;;;5051567;28;20406;-55
2023/07/20 10:03:44;;;;;;;4.40;2.38;;;21.80;99.90;;;;;;5052732;28;20021;-56
2023/07/20 10:06:15;;;;;;;3.13;2.20;;;21.80;99.90;;;;;;5052426;28;20062;-57
2023/07/20 10:08:42;;;;;;;4.03;2.40;;;21.90;99.90;;;;;;5052579;28;20025;-56
2023/07/20 10:11:12;;;;;;;3.00;2.15;;;21.90;99.90;;;;;;5052558;28;20036;-56
2023/07/20 10:13:39;;;;;;;3.55;2.10;;;22.00;99.90;;;;;;5052393;28;20644;-56
2023/07/20 10:16:11;;;;;;;3.05;2.08;;;22.20;99.90;;;;;;5052595;28;20101;-56
2023/07/20 10:19:21;;;;;;;2.72;2.35;;;22.40;99.90;;;;;;5052375;28;20031;-56
2023/07/20 10:21:51;;;;;;;3.42;2.10;;;22.50;99.90;;;;;;5029840;28;20061;-56
2023/07/20 10:24:18;;;;;;;3.55;2.28;;;22.70;99.90;;;;;;5030346;28;20053;-57
2023/07/20 10:26:44;;;;;;;3.08;2.28;;;22.80;99.90;;;;;;5030102;28;20083;-56
2023/07/20 10:29:11;;;;;;;3.72;2.33;;;22.90;99.90;;;;;;5030182;28;20026;-57
2023/07/20 10:31:37;;;;;;;2.78;2.17;;;23.00;99.90;;;;;;5029563;28;20573;-55
2023/07/20 10:34:04;;;;;;;2.58;1.98;;;23.10;99.90;;;;;;5030012;28;20104;-56
2023/07/20 10:36:30;;;;;;;7.78;2.10;;;23.10;99.90;;;;;;5030131;28;20545;-57
2023/07/20 10:38:57;;;;;;;5.88;2.28;;;23.20;99.90;;;;;;5030064;28;20171;-58
2023/07/20 10:41:34;;;;;;;3.35;2.05;;;23.30;99.90;;;;;;5029402;28;20079;-59
2023/07/20 10:44:08;;;;;;;8.23;2.97;;;23.40;99.90;;;;;;5028745;28;20084;-59
2023/07/20 10:46:39;;;;;;;7.22;2.92;;;23.80;99.90;;;;;;5028515;28;20029;-59
2023/07/20 10:49:06;;;;;;;4.97;2.40;;;23.70;99.90;;;;;;5027958;28;20036;-59
2023/07/20 10:51:49;;;;;;;6.53;2.75;;;23.80;99.90;;;;;;5029159;28;20676;-59
2023/07/20 10:54:17;;;;;;;6.15;2.60;;;23.80;99.90;;;;;;5029447;28;20029;-59
2023/07/20 10:56:52;;;;;;;5.53;2.70;;;23.80;99.90;;;;;;5036613;28;20064;-59
2023/07/20 10:59:38;;;;;;;3.97;2.20;;;24.00;99.90;;;;;;5051784;28;20040;-59
2023/07/20 11:02:08;;;;;;;5.25;2.35;;;24.10;99.90;;;;;;5051576;28;20032;-59
2023/07/20 11:04:39;;;;;;;8.38;2.40;;;24.00;99.90;;;;;;5051437;28;20044;-58
2023/07/20 11:07:09;;;;;;;2.55;2.10;;;24.00;99.90;;;;;;5051771;28;20498;-59
2023/07/20 11:09:38;;;;;;;2.75;2.30;;;24.00;99.90;;;;;;5051721;28;20482;-59
2023/07/20 11:12:12;;;;;;;18.73;4.70;;;24.10;99.90;;;;;;5052025;28;20070;-59
2023/07/20 11:14:42;;;;;;;7.63;2.55;;;24.40;99.90;;;;;;5051528;28;20108;-60
2023/07/20 11:17:13;;;;;;;3.00;2.30;;;24.50;99.90;;;;;;5051382;28;20102;-60
2023/07/20 11:19:39;;;;;;;6.88;6.18;;;24.30;99.90;;;;;;5050953;28;20062;-60
2023/07/20 11:22:09;;;;;;;4.22;2.95;;;24.30;99.90;;;;;;5051483;28;20390;-60
2023/07/20 11:24:34;;;;;;;4.40;2.60;;;24.20;99.90;;;;;;5051615;28;20123;-60
2023/07/20 11:27:03;;;;;;;2.42;1.92;;;24.20;99.90;;;;;;5051152;28;20565;-60
2023/07/20 11:29:29;;;;;;;4.32;1.90;;;24.10;99.90;;;;;;5050732;28;20094;-60
2023/07/20 11:31:56;;;;;;;2.65;1.80;;;24.10;99.90;;;;;;5051430;28;20507;-60
2023/07/20 11:34:22;;;;;;;2.80;2.08;;;24.20;99.90;;;;;;5050876;28;20778;-59
2023/07/20 11:36:50;;;;;;;3.90;2.00;;;24.10;99.90;;;;;;5051129;28;20025;-58
2023/07/20 11:39:21;;;;;;;2.60;1.70;;;24.10;99.90;;;;;;5051193;28;20025;-60
2023/07/20 11:41:48;;;;;;;3.25;1.80;;;24.20;99.90;;;;;;5051346;28;20067;-60
2023/07/20 11:44:15;;;;;;;4.35;1.90;;;24.20;99.90;;;;;;5050814;28;20378;-59
2023/07/20 11:46:45;;;;;;;3.67;2.00;;;24.50;99.90;;;;;;5051110;28;20036;-60
2023/07/20 11:49:11;;;;;;;3.28;1.58;;;24.60;99.90;;;;;;5050969;28;20029;-59
2023/07/20 11:51:39;;;;;;;2.20;1.52;;;24.80;99.90;;;;;;5050849;28;20040;-59
2023/07/20 11:54:07;;;;;;;2.33;1.55;;;24.90;99.90;;;;;;5053090;28;20032;-59
2023/07/20 11:56:33;;;;;;;2.75;1.60;;;24.70;99.90;;;;;;5055001;28;20032;-59
2023/07/20 11:59:01;;;;;;;1.77;1.30;;;24.80;99.90;;;;;;5054413;28;20021;-58
2023/07/20 12:01:35;;;;;;;2.50;1.52;;;24.80;99.90;;;;;;5054537;28;20029;-59
2023/07/20 12:04:03;;;;;;;2.45;1.40;;;24.70;99.90;;;;;;5054904;28;20028;-59
2023/07/20 12:06:29;;;;;;;2.20;1.42;;;24.70;99.90;;;;;;5054777;28;20033;-59
2023/07/20 12:08:57;;;;;;;4.00;1.50;;;24.80;99.90;;;;;;5054829;28;20021;-59
2023/07/20 12:11:36;;;;;;;2.13;1.60;;;24.70;99.90;;;;;;5054568;28;20378;-59
2023/07/20 12:14:03;;;;;;;2.33;1.48;;;24.80;99.90;;;;;;5054639;28;20137;-59
2023/07/20 12:16:30;;;;;;;2.08;1.58;;;24.70;99.90;;;;;;5054605;28;20401;-59
2023/07/20 12:19:08;;;;;;;2.42;1.70;;;24.80;99.90;;;;;;5055039;28;20044;-59
2023/07/20 12:21:36;;;;;;;2.40;1.60;;;24.90;99.90;;;;;;5054606;28;20086;-60
2023/07/20 12:24:03;;;;;;;2.88;1.50;;;25.00;99.90;;;;;;5054440;28;20040;-58
2023/07/20 12:26:33;;;;;;;2.58;1.60;;;25.00;99.90;;;;;;5054642;28;20116;-59
2023/07/20 12:28:59;;;;;;;6.28;1.88;;;25.20;99.90;;;;;;5054194;28;20041;-58
2023/07/20 12:31:27;;;;;;;2.10;1.45;;;25.10;99.90;;;;;;5054245;28;20478;-59
2023/07/20 12:33:55;;;;;;;2.80;1.58;;;25.20;99.90;;;;;;5054525;28;20543;-59
2023/07/20 12:36:21;;;;;;;3.53;1.60;;;25.30;99.90;;;;;;5054514;28;20117;-59
2023/07/20 12:38:47;;;;;;;2.35;1.60;;;25.20;99.90;;;;;;5054755;28;20025;-59
2023/07/20 12:41:14;;;;;;;2.88;1.67;;;25.30;99.90;;;;;;5054242;28;20036;-59
2023/07/20 12:43:44;;;;;;;1.70;1.50;;;25.40;99.90;;;;;;5054111;28;20533;-59
2023/07/20 12:46:11;;;;;;;3.10;1.75;;;25.30;99.90;;;;;;5054086;28;20105;-59
2023/07/20 12:48:40;;;;;;;1.83;1.52;;;25.00;99.90;;;;;;5054572;28;20525;-59
2023/07/20 12:51:05;;;;;;;2.60;1.67;;;24.80;99.90;;;;;;5054052;28;20033;-58